Wade, Mississippi
Current Conditions -  °F | °C
As of 11:42 AM on Monday 22 Dec 2014 (Local Time) from KPQL Reporting Station
Overcast Overcast  
Wind Chill: 68°   Ceiling: 1300
Heat Index: 68°   Visibility: 10mi
Dew Point: 64°   Wind: 12mph
Humidity: 87%   Direction: 130°SE
Pressure: 29.8"   Gusts: NA
Location:  30.3649°N, 88.5432°W
Report Text: KPQL 221742Z 13010KT 10SM BKN013 OVC024 20/18 A2980 RMK AO2 T02000178
Loading
Personal Weather Stations






























Interactive Weather Map New forecast layout! Learn more

10-Day Weather Forecast

Advertisements
Track Severe Weather on mobile